Andrews A F B, District of Columbia
Current Conditions -  °F | °C
As of 11:03 PM on Sunday 23 Nov 2014 (Local Time) from KADW Reporting Station
Light Rain Light Rain  
Wind Chill: 11°   Ceiling: 2500
Heat Index: 11°   Visibility: 10mi
Dew Point: 11°   Wind: 9mph
Humidity: 100%   Direction: 80°E
Pressure: 29.85"   Gusts: NA
Location:  38.8022°N, 76.8857°W
Report Text: KADW 240403Z AUTO 08008KT 10SM -RA BKN025 BKN030 OVC037 11/11 A2985 RMK AO2 CIG 025V037 $
Loading
Personal Weather Stations






























Interactive Weather Map New forecast layout! Learn more

10-Day Weather Forecast

Advertisements
Track Severe Weather on mobile